sensor_id;sensor_type;location;lat;lon;timestamp;pressure;altitude;pressure_sealevel;temperature;humidity
49473;BME280;73594;50.944;6.950;2024-03-07T00:00:08;101970.13;;;6.68;96.92
49473;BME280;73594;50.944;6.950;2024-03-07T00:02:43;101976.97;;;6.70;97.12
49473;BME280;73594;50.944;6.950;2024-03-07T00:05:10;101968.25;;;6.68;96.98
49473;BME280;73594;50.944;6.950;2024-03-07T00:07:36;101975.31;;;6.69;97.26
49473;BME280;73594;50.944;6.950;2024-03-07T00:10:03;101967.22;;;6.63;97.29
49473;BME280;73594;50.944;6.950;2024-03-07T00:12:29;101977.16;;;6.69;97.28
49473;BME280;73594;50.944;6.950;2024-03-07T00:14:55;101971.16;;;6.67;96.86
49473;BME280;73594;50.944;6.950;2024-03-07T00:17:20;101981.69;;;6.68;96.44
49473;BME280;73594;50.944;6.950;2024-03-07T00:19:46;101978.19;;;6.68;96.29
49473;BME280;73594;50.944;6.950;2024-03-07T00:22:13;101964.72;;;6.61;96.44
49473;BME280;73594;50.944;6.950;2024-03-07T00:24:40;101978.38;;;6.59;96.79
49473;BME280;73594;50.944;6.950;2024-03-07T00:27:05;101987.44;;;6.58;96.94
49473;BME280;73594;50.944;6.950;2024-03-07T00:29:30;101979.59;;;6.57;96.75
49473;BME280;73594;50.944;6.950;2024-03-07T00:31:56;101974.00;;;6.52;96.68
49473;BME280;73594;50.944;6.950;2024-03-07T00:34:21;101979.34;;;6.45;96.79
49473;BME280;73594;50.944;6.950;2024-03-07T00:36:48;101968.38;;;6.40;97.24
49473;BME280;73594;50.944;6.950;2024-03-07T00:39:14;101978.91;;;6.42;96.78
49473;BME280;73594;50.944;6.950;2024-03-07T00:41:39;101978.50;;;6.45;96.92
49473;BME280;73594;50.944;6.950;2024-03-07T00:44:05;101975.59;;;6.40;97.07
49473;BME280;73594;50.944;6.950;2024-03-07T00:46:31;101975.59;;;6.40;97.07
49473;BME280;73594;50.944;6.950;2024-03-07T00:48:57;101974.34;;;6.36;97.07
49473;BME280;73594;50.944;6.950;2024-03-07T00:51:22;101974.53;;;6.34;96.92
49473;BME280;73594;50.944;6.950;2024-03-07T00:53:47;101968.06;;;6.28;97.36
49473;BME280;73594;50.944;6.950;2024-03-07T00:56:13;101980.47;;;6.30;97.34
49473;BME280;73594;50.944;6.950;2024-03-07T00:58:39;101976.34;;;6.27;97.73
49473;BME280;73594;50.944;6.950;2024-03-07T01:01:04;101954.00;;;6.20;97.49
49473;BME280;73594;50.944;6.950;2024-03-07T01:03:29;101962.25;;;6.18;97.31
49473;BME280;73594;50.944;6.950;2024-03-07T01:05:55;101952.72;;;6.16;97.66
49473;BME280;73594;50.944;6.950;2024-03-07T01:08:20;101957.94;;;6.24;97.33
49473;BME280;73594;50.944;6.950;2024-03-07T01:10:45;101949.41;;;6.14;97.36
49473;BME280;73594;50.944;6.950;2024-03-07T01:13:11;101940.72;;;6.12;97.56
49473;BME280;73594;50.944;6.950;2024-03-07T01:15:44;101939.47;;;6.08;97.44
49473;BME280;73594;50.944;6.950;2024-03-07T01:18:10;101973.38;;;6.15;97.69
49473;BME280;73594;50.944;6.950;2024-03-07T01:20:35;101951.03;;;6.08;97.54
49473;BME280;73594;50.944;6.950;2024-03-07T01:23:01;101949.19;;;6.09;97.61
49473;BME280;73594;50.944;6.950;2024-03-07T01:25:26;101951.03;;;6.08;97.65
49473;BME280;73594;50.944;6.950;2024-03-07T01:27:52;101954.75;;;6.07;97.67
49473;BME280;73594;50.944;6.950;2024-03-07T01:30:17;101946.47;;;6.02;97.85
49473;BME280;73594;50.944;6.950;2024-03-07T01:32:43;101947.69;;;6.00;97.83
49473;BME280;73594;50.944;6.950;2024-03-07T01:35:08;101945.19;;;5.98;97.55
49473;BME280;73594;50.944;6.950;2024-03-07T01:37:34;101939.84;;;5.98;97.55
49473;BME280;73594;50.944;6.950;2024-03-07T01:40:00;101938.19;;;5.97;97.66
49473;BME280;73594;50.944;6.950;2024-03-07T01:42:33;101933.84;;;5.96;97.59
49473;BME280;73594;50.944;6.950;2024-03-07T01:44:58;101921.13;;;5.83;97.58
49473;BME280;73594;50.944;6.950;2024-03-07T01:47:24;101922.34;;;5.81;97.97
49473;BME280;73594;50.944;6.950;2024-03-07T01:49:49;101919.22;;;5.77;98.11
49473;BME280;73594;50.944;6.950;2024-03-07T01:52:15;101928.53;;;5.81;97.86
49473;BME280;73594;50.944;6.950;2024-03-07T01:54:41;101933.47;;;5.78;98.53
49473;BME280;73594;50.944;6.950;2024-03-07T01:57:07;101940.88;;;5.76;98.41
49473;BME280;73594;50.944;6.950;2024-03-07T01:59:34;101918.59;;;5.75;98.21
49473;BME280;73594;50.944;6.950;2024-03-07T02:02:01;101925.56;;;5.70;98.06
49473;BME280;73594;50.944;6.950;2024-03-07T02:04:27;101925.56;;;5.70;97.98
49473;BME280;73594;50.944;6.950;2024-03-07T02:06:53;101912.56;;;5.67;97.97
49473;BME280;73594;50.944;6.950;2024-03-07T02:09:20;101914.41;;;5.66;97.84
49473;BME280;73594;50.944;6.950;2024-03-07T02:11:49;101903.63;;;5.59;98.35
49473;BME280;73594;50.944;6.950;2024-03-07T02:14:15;101908.31;;;5.57;98.66
49473;BME280;73594;50.944;6.950;2024-03-07T02:16:40;101914.34;;;5.59;98.41
49473;BME280;73594;50.944;6.950;2024-03-07T02:19:07;101912.22;;;5.55;98.67
49473;BME280;73594;50.944;6.950;2024-03-07T02:21:35;101894.28;;;5.55;98.81
49473;BME280;73594;50.944;6.950;2024-03-07T02:24:00;101902.28;;;5.49;98.96
49473;BME280;73594;50.944;6.950;2024-03-07T02:26:26;101894.03;;;5.50;98.49
49473;BME280;73594;50.944;6.950;2024-03-07T02:28:52;101900.88;;;5.53;98.25
49473;BME280;73594;50.944;6.950;2024-03-07T02:31:17;101889.06;;;5.47;98.12
49473;BME280;73594;50.944;6.950;2024-03-07T02:33:45;101900.25;;;5.51;98.49
49473;BME280;73594;50.944;6.950;2024-03-07T02:36:11;101890.06;;;5.40;98.39
49473;BME280;73594;50.944;6.950;2024-03-07T02:38:37;101894.44;;;5.47;98.24
49473;BME280;73594;50.944;6.950;2024-03-07T02:41:02;101897.94;;;5.48;97.94
49473;BME280;73594;50.944;6.950;2024-03-07T02:43:28;101889.03;;;5.41;97.83
49473;BME280;73594;50.944;6.950;2024-03-07T02:45:53;101891.75;;;5.47;97.86
49473;BME280;73594;50.944;6.950;2024-03-07T02:48:19;101895.66;;;5.45;97.29
49473;BME280;73594;50.944;6.950;2024-03-07T02:50:45;101897.31;;;5.46;97.02
49473;BME280;73594;50.944;6.950;2024-03-07T02:53:10;101891.50;;;5.42;97.40
49473;BME280;73594;50.944;6.950;2024-03-07T02:55:35;101898.53;;;5.43;96.67
49473;BME280;73594;50.944;6.950;2024-03-07T02:58:01;101888.16;;;5.33;96.64
49473;BME280;73594;50.944;6.950;2024-03-07T03:00:26;101892.50;;;5.34;96.48
49473;BME280;73594;50.944;6.950;2024-03-07T03:02:52;101887.75;;;5.37;96.69
49473;BME280;73594;50.944;6.950;2024-03-07T03:05:18;101887.31;;;5.33;96.61
49473;BME280;73594;50.944;6.950;2024-03-07T03:07:44;101887.13;;;5.34;96.33
49473;BME280;73594;50.944;6.950;2024-03-07T03:10:12;101872.84;;;5.27;95.94
49473;BME280;73594;50.944;6.950;2024-03-07T03:12:40;101882.31;;;5.23;95.98
49473;BME280;73594;50.944;6.950;2024-03-07T03:15:07;101887.47;;;5.25;96.05
49473;BME280;73594;50.944;6.950;2024-03-07T03:17:32;101872.13;;;5.19;95.73
49473;BME280;73594;50.944;6.950;2024-03-07T03:19:59;101877.88;;;5.16;96.04
49473;BME280;73594;50.944;6.950;2024-03-07T03:22:24;101874.19;;;5.17;95.88
49473;BME280;73594;50.944;6.950;2024-03-07T03:24:52;101874.56;;;5.14;95.93
49473;BME280;73594;50.944;6.950;2024-03-07T03:27:21;101881.97;;;5.12;96.14
49473;BME280;73594;50.944;6.950;2024-03-07T03:29:47;101879.69;;;5.09;96.39
49473;BME280;73594;50.944;6.950;2024-03-07T03:32:13;101871.78;;;5.00;96.74
49473;BME280;73594;50.944;6.950;2024-03-07T03:34:38;101870.31;;;4.98;96.50
49473;BME280;73594;50.944;6.950;2024-03-07T03:37:03;101875.22;;;4.94;96.98
49473;BME280;73594;50.944;6.950;2024-03-07T03:39:30;101871.53;;;4.95;96.99
49473;BME280;73594;50.944;6.950;2024-03-07T03:41:55;101870.69;;;4.95;97.25
49473;BME280;73594;50.944;6.950;2024-03-07T03:44:20;101887.81;;;4.94;97.20
49473;BME280;73594;50.944;6.950;2024-03-07T03:46:46;101875.44;;;4.93;97.47
49473;BME280;73594;50.944;6.950;2024-03-07T03:49:11;101874.97;;;4.89;96.87
49473;BME280;73594;50.944;6.950;2024-03-07T03:51:36;101871.28;;;4.90;97.12
49473;BME280;73594;50.944;6.950;2024-03-07T03:54:02;101866.13;;;4.89;96.79
49473;BME280;73594;50.944;6.950;2024-03-07T03:56:27;101864.00;;;4.84;96.89
49473;BME280;73594;50.944;6.950;2024-03-07T03:58:53;101865.88;;;4.84;97.28
49473;BME280;73594;50.944;6.950;2024-03-07T04:01:18;101877.28;;;4.92;97.23
49473;BME280;73594;50.944;6.950;2024-03-07T04:03:44;101867.97;;;4.88;97.16
49473;BME280;73594;50.944;6.950;2024-03-07T04:06:12;101866.69;;;4.84;96.94
49473;BME280;73594;50.944;6.950;2024-03-07T04:08:37;101862.16;;;4.85;97.05
49473;BME280;73594;50.944;6.950;2024-03-07T04:11:06;101858.66;;;4.84;96.72
49473;BME280;73594;50.944;6.950;2024-03-07T04:13:34;101857.16;;;4.82;97.22
49473;BME280;73594;50.944;6.950;2024-03-07T04:16:00;101863.00;;;4.85;96.75
49473;BME280;73594;50.944;6.950;2024-03-07T04:18:25;101848.97;;;4.83;96.55
49473;BME280;73594;50.944;6.950;2024-03-07T04:20:51;101856.34;;;4.81;96.87
49473;BME280;73594;50.944;6.950;2024-03-07T04:23:17;101855.50;;;4.81;97.02
49473;BME280;73594;50.944;6.950;2024-03-07T04:25:43;101858.00;;;4.82;96.83
49473;BME280;73594;50.944;6.950;2024-03-07T04:28:09;101854.47;;;4.82;96.83
49473;BME280;73594;50.944;6.950;2024-03-07T04:30:34;101853.66;;;4.81;96.58
49473;BME280;73594;50.944;6.950;2024-03-07T04:32:59;101858.19;;;4.81;96.84
49473;BME280;73594;50.944;6.950;2024-03-07T04:35:25;101854.88;;;4.79;96.41
49473;BME280;73594;50.944;6.950;2024-03-07T04:37:50;101848.22;;;4.75;96.72
49473;BME280;73594;50.944;6.950;2024-03-07T04:40:17;101856.28;;;4.75;96.53
49473;BME280;73594;50.944;6.950;2024-03-07T04:42:45;101852.38;;;4.77;97.17
49473;BME280;73594;50.944;6.950;2024-03-07T04:45:12;101856.28;;;4.75;97.16
49473;BME280;73594;50.944;6.950;2024-03-07T04:47:42;101843.72;;;4.75;97.24
49473;BME280;73594;50.944;6.950;2024-03-07T04:50:11;101849.25;;;4.74;97.25
49473;BME280;73594;50.944;6.950;2024-03-07T04:52:37;101844.91;;;4.72;97.36
49473;BME280;73594;50.944;6.950;2024-03-07T04:55:08;101859.34;;;4.71;97.27
49473;BME280;73594;50.944;6.950;2024-03-07T04:57:37;101846.97;;;4.70;97.31
49473;BME280;73594;50.944;6.950;2024-03-07T05:00:09;101845.88;;;4.65;96.85
49473;BME280;73594;50.944;6.950;2024-03-07T05:02:45;101852.25;;;4.64;97.37
49473;BME280;73594;50.944;6.950;2024-03-07T05:05:11;101853.47;;;4.61;97.97
49473;BME280;73594;50.944;6.950;2024-03-07T05:07:37;101858.25;;;4.66;97.40
49473;BME280;73594;50.944;6.950;2024-03-07T05:10:04;101853.34;;;4.69;97.28
49473;BME280;73594;50.944;6.950;2024-03-07T05:12:30;101859.91;;;4.67;96.83
49473;BME280;73594;50.944;6.950;2024-03-07T05:14:56;101844.47;;;4.69;96.49
49473;BME280;73594;50.944;6.950;2024-03-07T05:17:21;101850.09;;;4.74;97.17
49473;BME280;73594;50.944;6.950;2024-03-07T05:19:47;101844.28;;;4.70;96.93
49473;BME280;73594;50.944;6.950;2024-03-07T05:22:14;101847.22;;;4.76;97.06
49473;BME280;73594;50.944;6.950;2024-03-07T05:24:41;101853.66;;;4.81;97.32
49473;BME280;73594;50.944;6.950;2024-03-07T05:27:08;101856.13;;;4.83;96.84
49473;BME280;73594;50.944;6.950;2024-03-07T05:29:36;101850.34;;;4.79;96.88
49473;BME280;73594;50.944;6.950;2024-03-07T05:32:25;101851.88;;;4.88;96.70
49473;BME280;73594;50.944;6.950;2024-03-07T05:34:51;101849.50;;;4.79;96.61
49473;BME280;73594;50.944;6.950;2024-03-07T05:37:19;101852.81;;;4.81;96.70
49473;BME280;73594;50.944;6.950;2024-03-07T05:39:47;101870.25;;;4.91;96.27
49473;BME280;73594;50.944;6.950;2024-03-07T05:42:13;101851.31;;;4.93;96.20
49473;BME280;73594;50.944;6.950;2024-03-07T05:44:43;101856.88;;;4.91;96.44
49473;BME280;73594;50.944;6.950;2024-03-07T05:47:09;101857.50;;;4.93;96.26
49473;BME280;73594;50.944;6.950;2024-03-07T05:49:35;101860.19;;;4.93;96.16
49473;BME280;73594;50.944;6.950;2024-03-07T05:52:02;101864.50;;;4.94;96.28
49473;BME280;73594;50.944;6.950;2024-03-07T05:54:28;101856.09;;;4.97;96.04
49473;BME280;73594;50.944;6.950;2024-03-07T05:56:54;101855.25;;;4.97;95.94
49473;BME280;73594;50.944;6.950;2024-03-07T05:59:20;101851.56;;;4.98;95.08
49473;BME280;73594;50.944;6.950;2024-03-07T06:01:46;101852.38;;;4.98;95.08
49473;BME280;73594;50.944;6.950;2024-03-07T06:04:12;101856.09;;;4.97;94.95
49473;BME280;73594;50.944;6.950;2024-03-07T06:06:38;101850.94;;;4.96;94.78
49473;BME280;73594;50.944;6.950;2024-03-07T06:09:07;101861.44;;;4.97;94.81
49473;BME280;73594;50.944;6.950;2024-03-07T06:11:37;101849.72;;;4.98;94.96
49473;BME280;73594;50.944;6.950;2024-03-07T06:14:03;101843.91;;;4.95;94.96
49473;BME280;73594;50.944;6.950;2024-03-07T06:16:37;101855.06;;;4.98;94.55
49473;BME280;73594;50.944;6.950;2024-03-07T06:19:04;101857.25;;;4.88;94.96
49473;BME280;73594;50.944;6.950;2024-03-07T06:21:32;101848.00;;;4.91;94.93
49473;BME280;73594;50.944;6.950;2024-03-07T06:23:58;101867.97;;;4.88;94.56
49473;BME280;73594;50.944;6.950;2024-03-07T06:26:27;101857.25;;;4.88;95.06
49473;BME280;73594;50.944;6.950;2024-03-07T06:29:06;101851.44;;;4.85;95.05
49473;BME280;73594;50.944;6.950;2024-03-07T06:31:32;101848.56;;;4.86;95.03
49473;BME280;73594;50.944;6.950;2024-03-07T06:33:57;101848.97;;;4.83;95.13
49473;BME280;73594;50.944;6.950;2024-03-07T06:36:23;101848.03;;;4.76;94.96
49473;BME280;73594;50.944;6.950;2024-03-07T06:38:50;101857.16;;;4.82;94.70
49473;BME280;73594;50.944;6.950;2024-03-07T06:41:15;101852.38;;;4.77;95.04
49473;BME280;73594;50.944;6.950;2024-03-07T06:43:43;101854.66;;;4.80;94.65
49473;BME280;73594;50.944;6.950;2024-03-07T06:46:08;101852.19;;;4.79;94.60
49473;BME280;73594;50.944;6.950;2024-03-07T06:48:34;101854.47;;;4.82;94.42
49473;BME280;73594;50.944;6.950;2024-03-07T06:51:00;101849.88;;;4.76;94.39
49473;BME280;73594;50.944;6.950;2024-03-07T06:53:25;101855.44;;;4.74;94.55
49473;BME280;73594;50.944;6.950;2024-03-07T06:55:52;101858.94;;;4.75;94.37
49473;BME280;73594;50.944;6.950;2024-03-07T06:58:19;101865.13;;;4.75;94.26
49473;BME280;73594;50.944;6.950;2024-03-07T07:00:45;101860.78;;;4.74;94.03
49473;BME280;73594;50.944;6.950;2024-03-07T07:03:11;101861.63;;;4.75;93.48
49473;BME280;73594;50.944;6.950;2024-03-07T07:05:39;101858.94;;;4.75;93.53
49473;BME280;73594;50.944;6.950;2024-03-07T07:08:06;101857.47;;;4.72;93.12
49473;BME280;73594;50.944;6.950;2024-03-07T07:10:32;101856.66;;;4.71;93.18
49473;BME280;73594;50.944;6.950;2024-03-07T07:12:57;101846.31;;;4.68;93.14
49473;BME280;73594;50.944;6.950;2024-03-07T07:15:23;101855.00;;;4.70;92.92
49473;BME280;73594;50.944;6.950;2024-03-07T07:17:49;101862.84;;;4.72;92.89
49473;BME280;73594;50.944;6.950;2024-03-07T07:20:16;101856.66;;;4.71;92.42
49473;BME280;73594;50.944;6.950;2024-03-07T07:22:42;101859.13;;;4.73;93.03
49473;BME280;73594;50.944;6.950;2024-03-07T07:25:08;101850.53;;;4.78;92.48
49473;BME280;73594;50.944;6.950;2024-03-07T07:27:40;101861.44;;;4.76;92.57
49473;BME280;73594;50.944;6.950;2024-03-07T07:30:06;101851.94;;;4.74;91.74
49473;BME280;73594;50.944;6.950;2024-03-07T07:32:33;101854.03;;;4.78;91.84
49473;BME280;73594;50.944;6.950;2024-03-07T07:34:59;101858.75;;;4.76;91.75
49473;BME280;73594;50.944;6.950;2024-03-07T07:37:25;101854.03;;;4.78;91.96
49473;BME280;73594;50.944;6.950;2024-03-07T07:39:50;101840.00;;;4.76;91.93
49473;BME280;73594;50.944;6.950;2024-03-07T07:42:16;101836.94;;;4.79;91.56
49473;BME280;73594;50.944;6.950;2024-03-07T07:44:41;101833.19;;;4.74;90.66
49473;BME280;73594;50.944;6.950;2024-03-07T07:47:08;101844.44;;;4.84;90.82
49473;BME280;73594;50.944;6.950;2024-03-07T07:49:34;101847.94;;;4.84;90.66
49473;BME280;73594;50.944;6.950;2024-03-07T07:51:59;101836.94;;;4.79;90.62
49473;BME280;73594;50.944;6.950;2024-03-07T07:54:25;101841.91;;;4.82;90.58
49473;BME280;73594;50.944;6.950;2024-03-07T07:56:51;101839.50;;;4.87;89.97
49473;BME280;73594;50.944;6.950;2024-03-07T07:59:16;101838.69;;;4.87;89.78
49473;BME280;73594;50.944;6.950;2024-03-07T08:01:42;101842.44;;;4.92;89.13
49473;BME280;73594;50.944;6.950;2024-03-07T08:04:07;101837.91;;;4.93;88.65
49473;BME280;73594;50.944;6.950;2024-03-07T08:06:35;101834.22;;;4.94;88.19
49473;BME280;73594;50.944;6.950;2024-03-07T08:09:00;101840.84;;;4.98;87.54
49473;BME280;73594;50.944;6.950;2024-03-07T08:11:25;101831.38;;;5.02;87.08
49473;BME280;73594;50.944;6.950;2024-03-07T08:13:51;101842.75;;;5.04;86.54
49473;BME280;73594;50.944;6.950;2024-03-07T08:16:16;101823.34;;;5.02;86.97
49473;BME280;73594;50.944;6.950;2024-03-07T08:18:42;101841.63;;;5.20;86.06
49473;BME280;73594;50.944;6.950;2024-03-07T08:21:07;101838.94;;;5.20;86.18
49473;BME280;73594;50.944;6.950;2024-03-07T08:23:36;101836.94;;;5.22;85.23
49473;BME280;73594;50.944;6.950;2024-03-07T08:26:02;101830.34;;;5.24;85.30
49473;BME280;73594;50.944;6.950;2024-03-07T08:28:27;101826.06;;;5.30;84.15
49473;BME280;73594;50.944;6.950;2024-03-07T08:30:53;101839.06;;;5.33;82.80
49473;BME280;73594;50.944;6.950;2024-03-07T08:33:20;101836.63;;;5.38;83.12
49473;BME280;73594;50.944;6.950;2024-03-07T08:35:47;101825.91;;;5.38;82.77
49473;BME280;73594;50.944;6.950;2024-03-07T08:38:13;101829.06;;;5.48;81.20
49473;BME280;73594;50.944;6.950;2024-03-07T08:40:38;101828.25;;;5.54;81.92
49473;BME280;73594;50.944;6.950;2024-03-07T08:43:05;101828.06;;;5.56;80.28
49473;BME280;73594;50.944;6.950;2024-03-07T08:45:32;101818.00;;;5.58;79.74
49473;BME280;73594;50.944;6.950;2024-03-07T08:47:58;101817.84;;;5.66;78.25
49473;BME280;73594;50.944;6.950;2024-03-07T08:50:25;101810.00;;;5.71;77.48
49473;BME280;73594;50.944;6.950;2024-03-07T08:52:51;101816.44;;;5.77;77.75
49473;BME280;73594;50.944;6.950;2024-03-07T08:55:19;101810.47;;;5.81;77.84
49473;BME280;73594;50.944;6.950;2024-03-07T08:57:46;101819.56;;;5.87;76.74
49473;BME280;73594;50.944;6.950;2024-03-07T09:00:14;101808.63;;;5.88;75.29
49473;BME280;73594;50.944;6.950;2024-03-07T09:02:50;101808.06;;;5.93;75.01
49473;BME280;73594;50.944;6.950;2024-03-07T09:05:17;101818.81;;;5.93;74.25
49473;BME280;73594;50.944;6.950;2024-03-07T09:07:42;101814.09;;;5.95;74.55
49473;BME280;73594;50.944;6.950;2024-03-07T09:10:08;101802.34;;;5.96;73.96
49473;BME280;73594;50.944;6.950;2024-03-07T09:12:34;101809.34;;;5.97;74.34
49473;BME280;73594;50.944;6.950;2024-03-07T09:14:59;101806.50;;;6.05;74.00
49473;BME280;73594;50.944;6.950;2024-03-07T09:17:25;101803.19;;;6.10;73.93
49473;BME280;73594;50.944;6.950;2024-03-07T09:19:50;101799.91;;;6.14;73.36
49473;BME280;73594;50.944;6.950;2024-03-07T09:22:15;101806.53;;;6.18;73.47
49473;BME280;73594;50.944;6.950;2024-03-07T09:24:41;101811.28;;;6.16;73.50
49473;BME280;73594;50.944;6.950;2024-03-07T09:27:06;101811.91;;;6.18;73.54
49473;BME280;73594;50.944;6.950;2024-03-07T09:29:31;101810.69;;;6.27;72.42
49473;BME280;73594;50.944;6.950;2024-03-07T09:31:57;101797.69;;;6.31;72.51
49473;BME280;73594;50.944;6.950;2024-03-07T09:34:23;101810.75;;;6.41;72.26
49473;BME280;73594;50.944;6.950;2024-03-07T09:36:49;101808.47;;;6.51;71.62
49473;BME280;73594;50.944;6.950;2024-03-07T09:39:16;101811.78;;;6.53;71.68
49473;BME280;73594;50.944;6.950;2024-03-07T09:41:41;101807.44;;;6.52;72.30
49473;BME280;73594;50.944;6.950;2024-03-07T09:44:09;101810.13;;;6.52;72.02
49473;BME280;73594;50.944;6.950;2024-03-07T09:46:38;101800.63;;;6.63;71.59
49473;BME280;73594;50.944;6.950;2024-03-07T09:49:04;101802.09;;;6.65;70.94
49473;BME280;73594;50.944;6.950;2024-03-07T09:51:31;101804.19;;;6.76;70.49
49473;BME280;73594;50.944;6.950;2024-03-07T09:53:57;101798.81;;;6.76;70.20
49473;BME280;73594;50.944;6.950;2024-03-07T09:56:28;101807.28;;;6.80;71.29
49473;BME280;73594;50.944;6.950;2024-03-07T09:58:58;101811.84;;;6.79;70.34
49473;BME280;73594;50.944;6.950;2024-03-07T10:01:26;101811.84;;;6.79;70.29
49473;BME280;73594;50.944;6.950;2024-03-07T10:03:58;101807.09;;;6.88;70.71
49473;BME280;73594;50.944;6.950;2024-03-07T10:06:28;101808.72;;;6.96;70.50
49473;BME280;73594;50.944;6.950;2024-03-07T10:08:55;101808.31;;;6.99;70.36
49473;BME280;73594;50.944;6.950;2024-03-07T10:11:21;101808.09;;;7.00;70.56
49473;BME280;73594;50.944;6.950;2024-03-07T10:13:46;101797.78;;;7.04;69.72
49473;BME280;73594;50.944;6.950;2024-03-07T10:16:16;101795.50;;;7.14;69.81
49473;BME280;73594;50.944;6.950;2024-03-07T10:18:42;101806.69;;;7.17;69.47
49473;BME280;73594;50.944;6.950;2024-03-07T10:21:08;101793.63;;;7.21;69.10
49473;BME280;73594;50.944;6.950;2024-03-07T10:23:33;101794.44;;;7.28;69.19
49473;BME280;73594;50.944;6.950;2024-03-07T10:26:00;101795.91;;;7.24;69.72
49473;BME280;73594;50.944;6.950;2024-03-07T10:28:26;101778.13;;;7.23;69.98
49473;BME280;73594;50.944;6.950;2024-03-07T10:30:53;101769.00;;;7.24;70.49
49473;BME280;73594;50.944;6.950;2024-03-07T10:33:18;101778.72;;;7.25;69.23
49473;BME280;73594;50.944;6.950;2024-03-07T10:35:48;101774.38;;;7.31;70.19
49473;BME280;73594;50.944;6.950;2024-03-07T10:38:14;101760.28;;;7.35;68.72
49473;BME280;73594;50.944;6.950;2024-03-07T10:40:40;101773.09;;;7.40;68.84
49473;BME280;73594;50.944;6.950;2024-03-07T10:43:10;101759.25;;;7.36;68.80
49473;BME280;73594;50.944;6.950;2024-03-07T10:45:46;101767.75;;;7.33;68.92
49473;BME280;73594;50.944;6.950;2024-03-07T10:48:12;101754.91;;;7.35;69.56
49473;BME280;73594;50.944;6.950;2024-03-07T10:51:13;101756.38;;;7.44;68.45
49473;BME280;73594;50.944;6.950;2024-03-07T10:54:24;101755.69;;;7.62;68.23
49473;BME280;73594;50.944;6.950;2024-03-07T10:56:50;101759.38;;;7.68;68.20
49473;BME280;73594;50.944;6.950;2024-03-07T10:59:25;101756.44;;;7.76;66.90
49473;BME280;73594;50.944;6.950;2024-03-07T11:02:04;101746.91;;;7.80;67.33
49473;BME280;73594;50.944;6.950;2024-03-07T11:04:35;101748.59;;;7.81;67.77
49473;BME280;73594;50.944;6.950;2024-03-07T11:07:02;101736.13;;;7.87;67.03
49473;BME280;73594;50.944;6.950;2024-03-07T11:09:27;101734.00;;;7.95;67.84
49473;BME280;73594;50.944;6.950;2024-03-07T11:12:01;101731.88;;;8.04;66.67
49473;BME280;73594;50.944;6.950;2024-03-07T11:14:33;101732.66;;;8.11;67.33
49473;BME280;73594;50.944;6.950;2024-03-07T11:17:01;101732.63;;;8.18;66.54
49473;BME280;73594;50.944;6.950;2024-03-07T11:19:31;101734.03;;;8.27;65.43
49473;BME280;73594;50.944;6.950;2024-03-07T11:22:02;101736.91;;;8.32;65.65
49473;BME280;73594;50.944;6.950;2024-03-07T11:24:30;101733.22;;;8.26;65.86
49473;BME280;73594;50.944;6.950;2024-03-07T11:26:58;101735.69;;;8.28;66.39
49473;BME280;73594;50.944;6.950;2024-03-07T11:29:39;101715.16;;;8.33;65.04
49473;BME280;73594;50.944;6.950;2024-03-07T11:32:11;101720.72;;;8.38;65.60
49473;BME280;73594;50.944;6.950;2024-03-07T11:34:39;101714.94;;;8.35;65.31
49473;BME280;73594;50.944;6.950;2024-03-07T11:37:10;101706.88;;;8.35;66.25
49473;BME280;73594;50.944;6.950;2024-03-07T11:39:49;101714.25;;;8.46;66.13
49473;BME280;73594;50.944;6.950;2024-03-07T11:44:52;101690.25;;;8.38;65.25
49473;BME280;73594;50.944;6.950;2024-03-07T11:47:22;101703.63;;;8.51;65.72
49473;BME280;73594;50.944;6.950;2024-03-07T11:49:52;101691.09;;;8.63;64.67
49473;BME280;73594;50.944;6.950;2024-03-07T11:52:18;101671.88;;;8.60;65.13
49473;BME280;73594;50.944;6.950;2024-03-07T11:54:44;101678.22;;;8.65;65.61
49473;BME280;73594;50.944;6.950;2024-03-07T11:57:15;101672.84;;;8.65;65.98
49473;BME280;73594;50.944;6.950;2024-03-07T11:59:40;101667.28;;;8.60;65.83
49473;BME280;73594;50.944;6.950;2024-03-07T12:02:14;101662.06;;;8.65;65.23
49473;BME280;73594;50.944;6.950;2024-03-07T12:04:43;101667.75;;;8.75;66.11
49473;BME280;73594;50.944;6.950;2024-03-07T12:07:09;101663.81;;;8.78;65.43
49473;BME280;73594;50.944;6.950;2024-03-07T12:09:39;101666.28;;;8.80;65.33
49473;BME280;73594;50.944;6.950;2024-03-07T12:12:08;101655.03;;;8.83;65.31
49473;BME280;73594;50.944;6.950;2024-03-07T12:14:34;101661.63;;;8.87;65.47
49473;BME280;73594;50.944;6.950;2024-03-07T12:17:03;101658.25;;;8.91;64.95
49473;BME280;73594;50.944;6.950;2024-03-07T12:19:31;101645.47;;;8.87;64.97
49473;BME280;73594;50.944;6.950;2024-03-07T12:22:02;101642.53;;;8.88;65.61
49473;BME280;73594;50.944;6.950;2024-03-07T12:24:31;101635.13;;;8.84;65.59
49473;BME280;73594;50.944;6.950;2024-03-07T12:27:10;101641.13;;;8.86;65.72
49473;BME280;73594;50.944;6.950;2024-03-07T12:29:37;101634.66;;;8.87;65.99
49473;BME280;73594;50.944;6.950;2024-03-07T12:32:06;101636.78;;;8.85;65.92
49473;BME280;73594;50.944;6.950;2024-03-07T12:34:39;101631.38;;;8.85;66.33
49473;BME280;73594;50.944;6.950;2024-03-07T12:37:11;101621.88;;;8.82;65.92
49473;BME280;73594;50.944;6.950;2024-03-07T12:39:37;101612.50;;;8.85;66.16
49473;BME280;73594;50.944;6.950;2024-03-07T12:42:13;101617.81;;;8.91;65.84
49473;BME280;73594;50.944;6.950;2024-03-07T12:44:41;101609.13;;;8.89;66.20
49473;BME280;73594;50.944;6.950;2024-03-07T12:47:09;101602.19;;;9.00;65.79
49473;BME280;73594;50.944;6.950;2024-03-07T12:49:35;101600.59;;;9.11;65.09
49473;BME280;73594;50.944;6.950;2024-03-07T12:52:00;101601.13;;;9.19;64.72
49473;BME280;73594;50.944;6.950;2024-03-07T12:54:26;101600.16;;;9.32;63.84
49473;BME280;73594;50.944;6.950;2024-03-07T12:56:52;101584.38;;;9.29;63.80
49473;BME280;73594;50.944;6.950;2024-03-07T12:59:18;101596.84;;;9.30;64.13
49473;BME280;73594;50.944;6.950;2024-03-07T13:01:45;101597.06;;;9.28;64.20